createdAt,value
2023-04-24T00:03:30.740Z,78.60
2023-04-24T00:06:01.967Z,78.50
2023-04-24T00:11:41.052Z,78.50
2023-04-24T00:14:19.272Z,78.40
2023-04-24T00:16:47.795Z,78.50
2023-04-24T00:19:24.211Z,78.30
2023-04-24T00:24:48.895Z,78.20
2023-04-24T00:27:18.838Z,78.20
2023-04-24T00:29:49.272Z,78.20
2023-04-24T00:35:15.632Z,78.20
2023-04-24T00:37:45.854Z,78.20
2023-04-24T00:40:16.207Z,78.20
2023-04-24T00:42:46.380Z,78.30
2023-04-24T00:45:35.447Z,78.30
2023-04-24T00:48:04.098Z,78.30
2023-04-24T00:50:48.328Z,78.50
2023-04-24T00:53:17.274Z,78.60
2023-04-24T00:55:53.445Z,78.70
2023-04-24T01:02:19.876Z,78.80
2023-04-24T01:04:57.926Z,78.80
2023-04-24T01:07:27.450Z,78.90
2023-04-24T01:09:56.975Z,78.90
2023-04-24T01:12:30.534Z,78.80
2023-04-24T01:14:59.507Z,78.90
2023-04-24T01:17:34.264Z,78.80
2023-04-24T01:20:10.780Z,78.80
2023-04-24T01:22:52.066Z,78.80
2023-04-24T01:25:23.951Z,78.70
2023-04-24T01:27:54.187Z,78.70
2023-04-24T01:30:26.090Z,78.80
2023-04-24T01:33:22.014Z,78.80
2023-04-24T01:35:50.870Z,78.90
2023-04-24T01:38:20.357Z,78.90
2023-04-24T01:43:56.243Z,78.90
2023-04-24T01:46:25.418Z,78.90
2023-04-24T01:48:56.224Z,78.70
2023-04-24T01:51:28.774Z,78.80
2023-04-24T01:54:02.888Z,78.70
2023-04-24T01:56:38.988Z,78.70
2023-04-24T01:59:09.575Z,78.70
2023-04-24T02:01:47.250Z,78.60
2023-04-24T02:04:20.913Z,78.70
2023-04-24T02:06:57.249Z,78.70
2023-04-24T02:12:14.317Z,78.60
2023-04-24T02:14:43.473Z,78.60
2023-04-24T02:20:06.939Z,78.60
2023-04-24T02:22:39.589Z,78.60
2023-04-24T02:25:32.456Z,78.70
2023-04-24T02:28:06.596Z,78.60
2023-04-24T02:30:40.922Z,78.80
2023-04-24T02:33:10.583Z,78.80
2023-04-24T02:35:40.547Z,78.80
2023-04-24T02:38:14.008Z,78.80
2023-04-24T02:40:43.837Z,78.90
2023-04-24T02:43:12.989Z,78.90
2023-04-24T02:45:41.257Z,79.00
2023-04-24T02:48:10.187Z,79.00
2023-04-24T02:50:39.534Z,79.20
2023-04-24T02:53:07.895Z,79.20
2023-04-24T02:55:40.217Z,79.20
2023-04-24T02:58:14.831Z,79.10
2023-04-24T03:00:42.990Z,79.10
2023-04-24T03:03:13.996Z,79.00
2023-04-24T03:05:42.698Z,78.90
2023-04-24T03:08:11.566Z,78.90
2023-04-24T03:10:40.196Z,78.90
2023-04-24T03:13:11.576Z,78.80
2023-04-24T03:15:40.161Z,78.90
2023-04-24T03:18:08.476Z,78.90
2023-04-24T03:20:38.081Z,79.00
2023-04-24T03:23:06.736Z,79.00
2023-04-24T03:25:35.577Z,79.30
2023-04-24T03:28:04.445Z,79.30
2023-04-24T03:30:47.013Z,79.40
2023-04-24T03:33:16.496Z,79.40
2023-04-24T03:35:55.404Z,79.50
2023-04-24T03:38:24.026Z,79.20
2023-04-24T03:41:05.414Z,79.20
2023-04-24T03:43:56.089Z,79.20
2023-04-24T03:46:25.784Z,79.20
2023-04-24T03:49:00.174Z,79.20
2023-04-24T03:51:33.256Z,79.20
2023-04-24T03:54:13.228Z,78.70
2023-04-24T03:56:42.187Z,78.70
2023-04-24T03:59:10.928Z,78.70
2023-04-24T04:01:44.008Z,78.50
2023-04-24T04:04:21.567Z,78.40
2023-04-24T04:06:50.095Z,78.40
2023-04-24T04:09:18.907Z,78.40
2023-04-24T04:11:47.569Z,78.40
2023-04-24T04:14:15.449Z,78.40
2023-04-24T04:16:49.652Z,78.40
2023-04-24T04:19:18.384Z,78.40
2023-04-24T04:21:53.142Z,78.40
2023-04-24T04:24:28.309Z,78.40
2023-04-24T04:26:59.346Z,78.60
2023-04-24T04:29:36.712Z,78.50
2023-04-24T04:32:09.850Z,78.50
2023-04-24T04:34:40.754Z,78.60
2023-04-24T04:37:12.191Z,78.60
2023-04-24T04:39:54.774Z,78.60
2023-04-24T04:42:25.966Z,78.60
2023-04-24T04:44:54.872Z,78.70
2023-04-24T04:47:33.640Z,78.60
2023-04-24T04:50:04.735Z,78.70
2023-04-24T04:52:34.693Z,78.70
2023-04-24T04:55:14.358Z,79.10
2023-04-24T04:58:08.022Z,79.00
2023-04-24T05:00:37.102Z,79.10
2023-04-24T05:03:20.832Z,78.90
2023-04-24T05:05:54.368Z,79.00
2023-04-24T05:08:27.552Z,79.00
2023-04-24T05:10:58.212Z,78.60
2023-04-24T05:13:39.381Z,78.50
2023-04-24T05:16:22.906Z,78.30
2023-04-24T05:18:55.844Z,78.20
2023-04-24T05:21:30.238Z,77.60
2023-04-24T05:23:58.270Z,77.30
2023-04-24T05:26:45.254Z,77.20
2023-04-24T05:29:15.123Z,76.80
2023-04-24T05:31:44.549Z,76.30
2023-04-24T05:34:17.943Z,76.10
2023-04-24T05:36:49.656Z,75.50
2023-04-24T05:39:18.949Z,75.40
2023-04-24T05:41:46.964Z,75.10
2023-04-24T05:44:14.868Z,74.80
2023-04-24T05:46:44.096Z,73.60
2023-04-24T05:49:15.394Z,73.10
2023-04-24T05:51:43.388Z,72.60
2023-04-24T05:54:13.121Z,71.40
2023-04-24T05:56:43.365Z,70.70
2023-04-24T05:59:14.502Z,69.60
2023-04-24T06:01:43.706Z,71.00
2023-04-24T06:04:19.427Z,71.50
2023-04-24T06:06:51.744Z,71.40
2023-04-24T06:09:20.364Z,71.70
2023-04-24T06:11:48.809Z,73.00
2023-04-24T06:14:17.020Z,73.20
2023-04-24T06:17:11.044Z,74.40
2023-04-24T06:19:45.804Z,74.20
2023-04-24T06:22:14.944Z,74.10
2023-04-24T06:24:43.759Z,74.30
2023-04-24T06:27:13.478Z,73.90
2023-04-24T06:29:43.689Z,74.00
2023-04-24T06:32:12.213Z,74.30
2023-04-24T06:34:40.408Z,74.20
2023-04-24T06:37:10.113Z,74.00
2023-04-24T06:39:38.430Z,73.20
2023-04-24T06:42:06.764Z,72.60
2023-04-24T06:44:38.765Z,72.00
2023-04-24T06:47:07.593Z,71.70
2023-04-24T06:49:35.759Z,72.10
2023-04-24T06:52:04.110Z,73.40
2023-04-24T06:54:34.446Z,74.00
2023-04-24T06:57:03.537Z,74.10
2023-04-24T06:59:32.238Z,74.50
2023-04-24T07:02:00.897Z,74.80
2023-04-24T07:04:29.300Z,74.40
2023-04-24T07:06:58.924Z,74.60
2023-04-24T07:09:28.179Z,74.00
2023-04-24T07:11:58.800Z,74.20
2023-04-24T07:14:26.871Z,74.30
2023-04-24T07:16:55.358Z,74.30
2023-04-24T07:19:23.702Z,74.10
2023-04-24T07:21:51.908Z,73.70
2023-04-24T07:24:21.769Z,73.60
2023-04-24T07:26:51.408Z,73.10
2023-04-24T07:29:22.412Z,73.40
2023-04-24T07:31:50.817Z,73.80
2023-04-24T07:34:19.789Z,74.10
2023-04-24T07:36:48.676Z,74.30
2023-04-24T07:39:16.973Z,73.00
2023-04-24T07:41:45.183Z,73.20
2023-04-24T07:44:13.540Z,71.10
2023-04-24T07:46:43.598Z,71.40
2023-04-24T07:49:14.188Z,69.70
2023-04-24T07:51:44.996Z,67.30
2023-04-24T07:54:13.516Z,64.70
2023-04-24T07:56:43.997Z,62.60
2023-04-24T07:59:12.322Z,64.40
2023-04-24T08:01:40.387Z,64.30
2023-04-24T08:04:11.110Z,63.20
2023-04-24T08:06:39.414Z,65.20
2023-04-24T08:09:07.534Z,63.50
2023-04-24T08:11:35.579Z,62.20
2023-04-24T08:14:03.695Z,62.70
2023-04-24T08:16:31.940Z,64.10
2023-04-24T08:19:00.034Z,64.80
2023-04-24T08:21:29.819Z,65.90
2023-04-24T08:23:58.440Z,67.10
2023-04-24T08:26:27.495Z,63.40
2023-04-24T08:28:55.505Z,62.30
2023-04-24T08:31:23.789Z,62.00
2023-04-24T08:33:52.478Z,60.60
2023-04-24T08:36:21.598Z,60.00
2023-04-24T08:38:51.565Z,60.20
2023-04-24T08:41:23.112Z,59.70
2023-04-24T08:43:51.740Z,57.80
2023-04-24T08:46:20.511Z,59.90
2023-04-24T08:48:49.073Z,62.20
2023-04-24T08:51:17.398Z,63.10
2023-04-24T08:53:45.870Z,64.30
2023-04-24T08:56:15.400Z,65.20
2023-04-24T08:58:43.671Z,67.20
2023-04-24T09:01:12.256Z,67.00
2023-04-24T09:03:40.982Z,67.00
2023-04-24T09:06:10.420Z,67.00
2023-04-24T09:08:40.588Z,68.10
2023-04-24T09:11:09.163Z,67.70
2023-04-24T09:13:38.917Z,67.60
2023-04-24T09:16:07.242Z,68.80
2023-04-24T09:18:37.189Z,69.70
2023-04-24T09:21:09.215Z,70.50
2023-04-24T09:23:37.719Z,70.30
2023-04-24T09:26:07.446Z,70.90
2023-04-24T09:28:38.367Z,71.40
2023-04-24T09:31:12.388Z,72.10
2023-04-24T09:33:40.940Z,72.10
2023-04-24T09:36:10.271Z,71.90
2023-04-24T09:38:40.389Z,71.90
2023-04-24T09:41:10.083Z,71.70
2023-04-24T09:43:39.024Z,71.60
2023-04-24T09:46:08.754Z,71.40
2023-04-24T09:48:38.848Z,71.00
2023-04-24T09:51:12.340Z,71.70
2023-04-24T09:53:41.933Z,72.30
2023-04-24T09:56:15.239Z,71.80
2023-04-24T09:58:43.603Z,72.50
2023-04-24T10:01:12.505Z,71.70
2023-04-24T10:03:44.430Z,71.20
2023-04-24T10:06:13.895Z,69.90
2023-04-24T10:08:42.483Z,69.60
2023-04-24T10:11:17.220Z,70.30
2023-04-24T10:13:46.062Z,69.20
2023-04-24T10:16:14.954Z,70.60
2023-04-24T10:18:45.435Z,69.80
2023-04-24T10:21:14.273Z,70.30
2023-04-24T10:23:44.016Z,71.40
2023-04-24T10:26:13.240Z,72.30
2023-04-24T10:28:42.508Z,72.00
2023-04-24T10:31:11.968Z,71.20
2023-04-24T10:33:42.534Z,72.70
2023-04-24T10:36:13.726Z,72.60
2023-04-24T10:38:44.053Z,71.30
2023-04-24T10:41:17.350Z,70.40
2023-04-24T10:43:49.736Z,68.60
2023-04-24T10:46:21.474Z,69.20
2023-04-24T10:48:54.835Z,70.00
2023-04-24T10:51:25.980Z,69.90
2023-04-24T10:53:54.429Z,69.60
2023-04-24T10:56:23.677Z,70.00
2023-04-24T10:58:53.366Z,70.60
2023-04-24T11:01:28.678Z,72.00
2023-04-24T11:03:57.822Z,73.60
2023-04-24T11:06:36.069Z,74.10
2023-04-24T11:09:06.535Z,74.80
2023-04-24T11:11:35.007Z,76.00
2023-04-24T11:14:04.379Z,76.30
2023-04-24T11:16:34.521Z,77.10
2023-04-24T11:19:04.047Z,77.30
2023-04-24T11:21:41.301Z,77.80
2023-04-24T11:24:29.591Z,77.60
2023-04-24T11:26:59.087Z,77.80
2023-04-24T11:29:40.966Z,78.10
2023-04-24T11:32:20.598Z,77.80
2023-04-24T11:34:53.760Z,78.00
2023-04-24T11:37:23.951Z,78.40
2023-04-24T11:39:53.230Z,78.40
2023-04-24T11:42:22.590Z,78.40
2023-04-24T11:44:51.623Z,78.40
2023-04-24T11:47:20.007Z,78.10
2023-04-24T11:49:48.363Z,78.30
2023-04-24T11:52:17.743Z,78.00
2023-04-24T11:54:51.221Z,77.90
2023-04-24T11:57:22.757Z,78.00
2023-04-24T11:59:51.414Z,78.10
2023-04-24T12:02:23.920Z,77.90
2023-04-24T12:04:53.983Z,78.00
2023-04-24T12:07:23.325Z,78.20
2023-04-24T12:09:59.306Z,78.40
2023-04-24T12:12:31.274Z,78.20
2023-04-24T12:15:00.329Z,77.90
2023-04-24T12:17:30.308Z,77.30
2023-04-24T12:20:03.676Z,78.60
2023-04-24T12:22:46.240Z,74.10
2023-04-24T12:25:16.265Z,74.00
2023-04-24T12:27:45.640Z,72.00
2023-04-24T12:30:15.240Z,69.90
2023-04-24T12:32:45.298Z,70.70
2023-04-24T12:35:13.793Z,69.20
2023-04-24T12:37:47.214Z,68.10
2023-04-24T12:40:17.954Z,68.00
2023-04-24T12:42:47.060Z,70.60
2023-04-24T12:45:15.886Z,71.40
2023-04-24T12:47:45.307Z,72.60
2023-04-24T12:50:14.748Z,72.60
2023-04-24T12:52:43.920Z,71.70
2023-04-24T12:55:13.245Z,72.80
2023-04-24T12:57:43.432Z,73.60
2023-04-24T13:00:12.765Z,73.90
2023-04-24T13:02:42.440Z,74.20
2023-04-24T13:05:12.836Z,73.80
2023-04-24T13:07:42.497Z,73.30
2023-04-24T13:10:12.266Z,71.50
2023-04-24T13:12:42.016Z,71.30
2023-04-24T13:15:12.003Z,68.50
2023-04-24T13:17:40.540Z,64.30
2023-04-24T13:20:09.386Z,64.50
2023-04-24T13:22:38.074Z,61.70
2023-04-24T13:25:08.342Z,59.60
2023-04-24T13:27:37.919Z,60.10
2023-04-24T13:30:07.042Z,61.40
2023-04-24T13:32:37.725Z,58.60
2023-04-24T13:35:06.505Z,58.70
2023-04-24T13:37:34.653Z,58.80
2023-04-24T13:40:04.333Z,57.20
2023-04-24T13:42:32.908Z,56.30
2023-04-24T13:45:06.089Z,58.50
2023-04-24T13:47:43.899Z,59.40
2023-04-24T13:50:12.294Z,61.90
2023-04-24T13:52:40.823Z,63.60
2023-04-24T13:55:09.315Z,66.40
2023-04-24T13:57:41.052Z,65.70
2023-04-24T14:00:11.893Z,63.60
2023-04-24T14:02:40.746Z,63.40
2023-04-24T14:05:12.003Z,64.20
2023-04-24T14:07:42.112Z,64.70
2023-04-24T14:10:11.405Z,63.70
2023-04-24T14:12:40.089Z,63.80
2023-04-24T14:15:09.731Z,62.50
2023-04-24T14:17:38.454Z,63.60
2023-04-24T14:20:08.237Z,64.70
2023-04-24T14:22:38.549Z,64.30
2023-04-24T14:25:07.355Z,66.00
2023-04-24T14:27:36.007Z,64.70
2023-04-24T14:30:05.706Z,65.60
2023-04-24T14:32:34.493Z,66.30
2023-04-24T14:35:02.846Z,65.90
2023-04-24T14:37:31.517Z,66.90
2023-04-24T14:42:35.528Z,66.20
2023-04-24T14:45:04.896Z,66.80
2023-04-24T14:47:33.295Z,65.20
2023-04-24T14:50:01.876Z,65.00
2023-04-24T14:52:30.580Z,66.10
2023-04-24T14:54:58.882Z,65.50
2023-04-24T14:57:28.646Z,65.30
2023-04-24T14:59:58.348Z,66.40
2023-04-24T15:02:27.474Z,65.70
2023-04-24T15:04:57.878Z,65.90
2023-04-24T15:07:26.460Z,65.60
2023-04-24T15:09:54.724Z,66.00
2023-04-24T15:12:25.883Z,65.00
2023-04-24T15:15:00.922Z,65.20
2023-04-24T15:17:30.889Z,65.10
2023-04-24T15:19:59.487Z,64.70
2023-04-24T15:22:27.826Z,64.10
2023-04-24T15:24:57.114Z,60.80
2023-04-24T15:27:25.968Z,60.00
2023-04-24T15:29:54.844Z,60.20
2023-04-24T15:32:24.947Z,57.40
2023-04-24T15:35:07.152Z,57.80
2023-04-24T15:37:37.130Z,57.20
2023-04-24T15:40:06.957Z,59.00
2023-04-24T15:42:35.257Z,60.80
2023-04-24T15:45:04.366Z,61.30
2023-04-24T15:47:34.214Z,61.00
2023-04-24T15:50:02.457Z,61.80
2023-04-24T15:52:30.780Z,61.70
2023-04-24T15:54:59.078Z,59.70
2023-04-24T15:57:28.190Z,61.60
2023-04-24T15:59:56.496Z,60.80
2023-04-24T16:02:25.085Z,60.90
2023-04-24T16:04:55.338Z,61.60
2023-04-24T16:07:24.288Z,61.20
2023-04-24T16:09:52.794Z,62.70
2023-04-24T16:12:21.035Z,64.00
2023-04-24T16:14:49.168Z,64.00
2023-04-24T16:17:17.189Z,64.40
2023-04-24T16:19:45.355Z,64.30
2023-04-24T16:22:15.045Z,65.00
2023-04-24T16:24:44.211Z,65.40
2023-04-24T16:27:12.601Z,66.70
2023-04-24T16:29:40.933Z,67.60
2023-04-24T16:32:09.509Z,67.00
2023-04-24T16:34:38.413Z,68.80
2023-04-24T16:37:07.315Z,69.50
2023-04-24T16:39:38.648Z,70.10
2023-04-24T16:42:07.227Z,69.80
2023-04-24T16:44:35.877Z,70.40
2023-04-24T16:47:04.451Z,70.90
2023-04-24T16:49:32.821Z,71.90
2023-04-24T16:52:01.207Z,69.70
2023-04-24T16:54:30.610Z,68.00
2023-04-24T16:57:00.547Z,67.00
2023-04-24T16:59:29.179Z,67.70
2023-04-24T17:01:57.186Z,67.50
2023-04-24T17:04:25.764Z,68.90
2023-04-24T17:06:54.052Z,69.70
2023-04-24T17:09:22.879Z,70.90
2023-04-24T17:11:51.364Z,71.60
2023-04-24T17:14:23.039Z,72.20
2023-04-24T17:16:51.643Z,72.70
2023-04-24T17:19:20.082Z,72.80
2023-04-24T17:21:48.476Z,73.00
2023-04-24T17:24:16.544Z,73.10
2023-04-24T17:26:45.283Z,73.30
2023-04-24T17:29:15.484Z,73.30
2023-04-24T17:31:45.671Z,74.30
2023-04-24T17:34:13.950Z,73.40
2023-04-24T17:36:42.330Z,73.70
2023-04-24T17:39:10.992Z,73.90
2023-04-24T17:41:39.664Z,76.20
2023-04-24T17:44:07.971Z,77.20
2023-04-24T17:46:36.655Z,77.60
2023-04-24T17:49:09.223Z,77.90
2023-04-24T17:51:37.288Z,78.10
2023-04-24T17:54:05.836Z,78.40
2023-04-24T17:56:34.375Z,78.50
2023-04-24T17:59:03.458Z,78.70
2023-04-24T18:01:32.495Z,78.20
2023-04-24T18:04:01.587Z,78.30
2023-04-24T18:06:32.789Z,78.30
2023-04-24T18:09:01.292Z,78.10
2023-04-24T18:11:29.898Z,78.10
2023-04-24T18:13:58.351Z,78.30
2023-04-24T18:16:26.858Z,78.20
2023-04-24T18:18:55.185Z,78.20
2023-04-24T18:21:24.190Z,78.30
2023-04-24T18:23:55.699Z,78.10
2023-04-24T18:26:24.082Z,78.20
2023-04-24T18:28:52.722Z,78.30
2023-04-24T18:31:32.859Z,78.30
2023-04-24T18:34:09.453Z,78.40
2023-04-24T18:36:37.844Z,78.30
2023-04-24T18:39:08.058Z,78.30
2023-04-24T18:41:36.444Z,78.30
2023-04-24T18:44:04.748Z,78.40
2023-04-24T18:46:38.103Z,78.40
2023-04-24T18:49:06.186Z,78.40
2023-04-24T18:51:46.689Z,78.40
2023-04-24T18:54:20.654Z,78.40
2023-04-24T18:56:48.926Z,78.40
2023-04-24T18:59:17.906Z,78.40
2023-04-24T19:01:47.631Z,78.40
2023-04-24T19:04:17.096Z,78.50
2023-04-24T19:06:45.589Z,78.40
2023-04-24T19:09:14.788Z,78.40
2023-04-24T19:11:45.419Z,78.50
2023-04-24T19:14:13.754Z,78.50
2023-04-24T19:16:42.966Z,78.40
2023-04-24T19:19:12.751Z,78.50
2023-04-24T19:21:40.721Z,78.50
2023-04-24T19:24:10.223Z,78.90
2023-04-24T19:26:42.343Z,78.90
2023-04-24T19:29:15.780Z,78.80
2023-04-24T19:31:46.511Z,78.80
2023-04-24T19:34:14.978Z,78.90
2023-04-24T19:36:44.599Z,78.90
2023-04-24T19:39:14.386Z,78.90
2023-04-24T19:41:42.483Z,78.90
2023-04-24T19:44:12.342Z,78.90
2023-04-24T19:46:42.676Z,78.90
2023-04-24T19:49:11.209Z,78.90
2023-04-24T19:51:39.746Z,78.90
2023-04-24T19:54:08.747Z,78.90
2023-04-24T19:56:37.784Z,79.00
2023-04-24T19:59:07.613Z,78.90
2023-04-24T20:01:36.622Z,78.80
2023-04-24T20:04:08.254Z,78.80
2023-04-24T20:06:36.771Z,78.90
2023-04-24T20:09:06.234Z,78.80
2023-04-24T20:11:34.597Z,78.80
2023-04-24T20:14:03.733Z,78.90
2023-04-24T20:16:32.412Z,78.90
2023-04-24T20:19:00.976Z,78.90
2023-04-24T20:21:30.547Z,78.90
2023-04-24T20:23:59.622Z,78.90
2023-04-24T20:26:28.153Z,78.90
2023-04-24T20:28:59.468Z,79.00
2023-04-24T20:31:28.261Z,79.00
2023-04-24T20:33:56.972Z,79.10
2023-04-24T20:36:25.655Z,79.10
2023-04-24T20:38:57.105Z,79.10
2023-04-24T20:41:27.724Z,79.00
2023-04-24T20:43:56.186Z,79.10
2023-04-24T20:46:24.465Z,79.10
2023-04-24T20:48:53.780Z,79.00
2023-04-24T20:51:21.826Z,78.90
2023-04-24T20:53:50.757Z,78.90
2023-04-24T20:56:21.675Z,78.90
2023-04-24T20:58:50.312Z,78.90
2023-04-24T21:01:18.970Z,78.80
2023-04-24T21:03:47.367Z,78.70
2023-04-24T21:06:16.117Z,78.80
2023-04-24T21:08:44.161Z,78.80
2023-04-24T21:11:12.429Z,78.80
2023-04-24T21:13:43.087Z,78.80
2023-04-24T21:16:11.393Z,78.80
2023-04-24T21:18:43.581Z,78.90
2023-04-24T21:21:13.281Z,78.80
2023-04-24T21:26:43.219Z,78.60
2023-04-24T21:29:12.652Z,78.60
2023-04-24T21:31:42.244Z,78.60
2023-04-24T21:34:10.713Z,78.70
2023-04-24T21:36:38.902Z,78.70
2023-04-24T21:39:07.030Z,78.70
2023-04-24T21:41:35.651Z,78.70
2023-04-24T21:44:04.820Z,78.70
2023-04-24T21:46:34.574Z,78.70
2023-04-24T21:49:02.929Z,78.70
2023-04-24T21:51:32.492Z,78.80
2023-04-24T21:54:00.715Z,78.80
2023-04-24T21:56:28.709Z,78.80
2023-04-24T21:58:57.496Z,78.80
2023-04-24T22:01:25.707Z,78.80
2023-04-24T22:07:11.360Z,78.80
2023-04-24T22:09:45.789Z,78.80
2023-04-24T22:12:19.069Z,79.00
2023-04-24T22:14:50.248Z,78.80
2023-04-24T22:17:19.346Z,78.80
2023-04-24T22:23:12.634Z,78.80
2023-04-24T22:25:44.017Z,78.80
2023-04-24T22:28:13.165Z,78.80
2023-04-24T22:30:45.111Z,78.90
2023-04-24T22:33:16.876Z,79.00
2023-04-24T22:35:44.898Z,79.00
2023-04-24T22:38:14.343Z,79.00
2023-04-24T22:40:52.635Z,79.10
2023-04-24T22:43:31.536Z,79.20
2023-04-24T22:46:02.091Z,79.20
2023-04-24T22:48:40.612Z,79.20
2023-04-24T22:51:13.143Z,79.20
2023-04-24T22:53:45.195Z,79.20
2023-04-24T22:56:14.158Z,79.30
2023-04-24T22:58:44.136Z,79.30
2023-04-24T23:03:58.368Z,79.30
2023-04-24T23:06:28.322Z,79.30
2023-04-24T23:09:08.042Z,79.30
2023-04-24T23:11:44.169Z,79.50
2023-04-24T23:14:24.590Z,79.40
2023-04-24T23:17:06.716Z,79.50
2023-04-24T23:19:39.993Z,79.40
2023-04-24T23:22:10.082Z,79.40
2023-04-24T23:25:03.491Z,79.50
2023-04-24T23:30:47.180Z,79.50
2023-04-24T23:33:25.317Z,79.50
2023-04-24T23:35:55.311Z,79.40
2023-04-24T23:38:50.281Z,79.40
2023-04-24T23:41:26.935Z,79.40
2023-04-24T23:44:06.141Z,79.30
2023-04-24T23:46:34.236Z,79.30
2023-04-24T23:49:06.313Z,79.40
2023-04-24T23:54:47.882Z,79.50
2023-04-24T23:57:18.012Z,79.50
2023-04-24T23:59:49.417Z,79.50
